sensor_id;sensor_type;location;lat;lon;timestamp;pressure;altitude;pressure_sealevel;temperature;humidity
78337;BME280;67610;51.588;7.002;2023-04-15T00:00:13;100066.97;;;11.10;49.12
78337;BME280;67610;51.588;7.002;2023-04-15T00:02:40;100067.94;;;11.09;49.53
78337;BME280;67610;51.588;7.002;2023-04-15T00:05:05;100061.03;;;11.08;49.41
78337;BME280;67610;51.588;7.002;2023-04-15T00:07:32;100066.78;;;11.03;49.51
78337;BME280;67610;51.588;7.002;2023-04-15T00:09:58;100064.66;;;10.99;50.12
78337;BME280;67610;51.588;7.002;2023-04-15T00:12:27;100069.94;;;10.99;49.87
78337;BME280;67610;51.588;7.002;2023-04-15T00:14:52;100067.66;;;10.96;49.87
78337;BME280;67610;51.588;7.002;2023-04-15T00:17:18;100073.56;;;10.90;50.54
78337;BME280;67610;51.588;7.002;2023-04-15T00:19:44;100071.94;;;10.89;50.28
78337;BME280;67610;51.588;7.002;2023-04-15T00:22:10;100069.81;;;10.84;50.64
78337;BME280;67610;51.588;7.002;2023-04-15T00:24:36;100069.31;;;10.81;50.62
78337;BME280;67610;51.588;7.002;2023-04-15T00:27:02;100065.56;;;10.75;50.54
78337;BME280;67610;51.588;7.002;2023-04-15T00:29:27;100074.09;;;10.69;50.38
78337;BME280;67610;51.588;7.002;2023-04-15T00:31:53;100068.22;;;10.59;50.91
78337;BME280;67610;51.588;7.002;2023-04-15T00:34:19;100075.28;;;10.59;50.80
78337;BME280;67610;51.588;7.002;2023-04-15T00:36:44;100073.28;;;10.52;51.13
78337;BME280;67610;51.588;7.002;2023-04-15T00:39:10;100076.09;;;10.51;51.49
78337;BME280;67610;51.588;7.002;2023-04-15T00:41:35;100077.25;;;10.40;51.71
78337;BME280;67610;51.588;7.002;2023-04-15T00:44:05;100074.63;;;10.40;51.85
78337;BME280;67610;51.588;7.002;2023-04-15T00:46:32;100067.72;;;10.31;52.64
78337;BME280;67610;51.588;7.002;2023-04-15T00:48:59;100070.31;;;10.23;52.67
78337;BME280;67610;51.588;7.002;2023-04-15T00:51:25;100072.28;;;10.21;52.52
78337;BME280;67610;51.588;7.002;2023-04-15T00:53:51;100069.00;;;10.19;53.18
78337;BME280;67610;51.588;7.002;2023-04-15T00:56:17;100068.03;;;10.12;53.19
78337;BME280;67610;51.588;7.002;2023-04-15T00:58:44;100072.28;;;10.13;52.92
78337;BME280;67610;51.588;7.002;2023-04-15T01:01:09;100066.22;;;10.13;52.79
78337;BME280;67610;51.588;7.002;2023-04-15T01:03:35;100065.00;;;10.07;53.24
78337;BME280;67610;51.588;7.002;2023-04-15T01:06:00;100068.13;;;10.03;53.80
78337;BME280;67610;51.588;7.002;2023-04-15T01:08:27;100069.94;;;10.02;53.36
78337;BME280;67610;51.588;7.002;2023-04-15T01:10:55;100069.59;;;9.97;53.97
78337;BME280;67610;51.588;7.002;2023-04-15T01:13:22;100067.97;;;9.96;54.21
78337;BME280;67610;51.588;7.002;2023-04-15T01:15:50;100064.81;;;9.93;54.08
78337;BME280;67610;51.588;7.002;2023-04-15T01:18:16;100070.25;;;9.91;53.51
78337;BME280;67610;51.588;7.002;2023-04-15T01:20:42;100070.25;;;9.91;53.85
78337;BME280;67610;51.588;7.002;2023-04-15T01:23:08;100073.84;;;9.90;54.01
78337;BME280;67610;51.588;7.002;2023-04-15T01:25:34;100078.44;;;9.88;54.28
78337;BME280;67610;51.588;7.002;2023-04-15T01:27:59;100062.19;;;9.84;54.33
78337;BME280;67610;51.588;7.002;2023-04-15T01:30:25;100072.53;;;9.86;54.34
78337;BME280;67610;51.588;7.002;2023-04-15T01:32:51;100070.22;;;9.83;54.50
78337;BME280;67610;51.588;7.002;2023-04-15T01:35:18;100069.56;;;9.81;54.37
78337;BME280;67610;51.588;7.002;2023-04-15T01:37:44;100074.16;;;9.79;54.84
78337;BME280;67610;51.588;7.002;2023-04-15T01:40:09;100076.78;;;9.79;54.74
78337;BME280;67610;51.588;7.002;2023-04-15T01:42:35;100081.53;;;9.75;54.96
78337;BME280;67610;51.588;7.002;2023-04-15T01:45:01;100078.75;;;9.77;54.64
78337;BME280;67610;51.588;7.002;2023-04-15T01:47:28;100076.78;;;9.79;54.73
78337;BME280;67610;51.588;7.002;2023-04-15T01:49:53;100074.44;;;9.76;54.92
78337;BME280;67610;51.588;7.002;2023-04-15T01:52:18;100073.50;;;9.77;54.80
78337;BME280;67610;51.588;7.002;2023-04-15T01:54:44;100075.44;;;9.75;54.69
78337;BME280;67610;51.588;7.002;2023-04-15T01:57:09;100074.63;;;9.74;54.78
78337;BME280;67610;51.588;7.002;2023-04-15T01:59:35;100073.66;;;9.75;54.77
78337;BME280;67610;51.588;7.002;2023-04-15T02:02:01;100071.66;;;9.69;55.35
78337;BME280;67610;51.588;7.002;2023-04-15T02:04:27;100070.50;;;9.64;54.82
78337;BME280;67610;51.588;7.002;2023-04-15T02:06:52;100071.47;;;9.63;54.88
78337;BME280;67610;51.588;7.002;2023-04-15T02:09:18;100076.38;;;9.58;55.08
78337;BME280;67610;51.588;7.002;2023-04-15T02:11:44;100077.50;;;9.55;54.72
78337;BME280;67610;51.588;7.002;2023-04-15T02:14:10;100081.13;;;9.54;54.83
78337;BME280;67610;51.588;7.002;2023-04-15T02:16:35;100084.88;;;9.52;55.57
78337;BME280;67610;51.588;7.002;2023-04-15T02:19:01;100084.53;;;9.47;55.12
78337;BME280;67610;51.588;7.002;2023-04-15T02:21:26;100084.72;;;9.45;55.71
78337;BME280;67610;51.588;7.002;2023-04-15T02:23:52;100091.41;;;9.40;55.92
78337;BME280;67610;51.588;7.002;2023-04-15T02:26:19;100090.06;;;9.36;55.98
78337;BME280;67610;51.588;7.002;2023-04-15T02:28:46;100091.38;;;9.32;57.05
78337;BME280;67610;51.588;7.002;2023-04-15T02:31:11;100088.69;;;9.24;56.18
78337;BME280;67610;51.588;7.002;2023-04-15T02:33:36;100086.53;;;9.19;56.47
78337;BME280;67610;51.588;7.002;2023-04-15T02:36:02;100098.31;;;9.15;56.51
78337;BME280;67610;51.588;7.002;2023-04-15T02:38:28;100101.25;;;9.12;57.28
78337;BME280;67610;51.588;7.002;2023-04-15T02:40:53;100102.03;;;9.04;57.27
78337;BME280;67610;51.588;7.002;2023-04-15T02:43:18;100107.41;;;8.95;57.43
78337;BME280;67610;51.588;7.002;2023-04-15T02:45:45;100098.03;;;8.92;57.36
78337;BME280;67610;51.588;7.002;2023-04-15T02:48:11;100104.06;;;8.93;57.45
78337;BME280;67610;51.588;7.002;2023-04-15T02:50:37;100107.53;;;8.93;57.49
78337;BME280;67610;51.588;7.002;2023-04-15T02:53:05;100108.53;;;8.92;57.66
78337;BME280;67610;51.588;7.002;2023-04-15T02:55:31;100114.06;;;8.89;58.04
78337;BME280;67610;51.588;7.002;2023-04-15T02:57:57;100117.44;;;8.82;58.54
78337;BME280;67610;51.588;7.002;2023-04-15T03:00:26;100114.44;;;8.77;58.79
78337;BME280;67610;51.588;7.002;2023-04-15T03:02:57;100115.56;;;8.74;59.25
78337;BME280;67610;51.588;7.002;2023-04-15T03:05:23;100120.47;;;8.69;59.09
78337;BME280;67610;51.588;7.002;2023-04-15T03:07:51;100116.72;;;8.72;58.95
78337;BME280;67610;51.588;7.002;2023-04-15T03:10:16;100117.41;;;8.74;59.11
78337;BME280;67610;51.588;7.002;2023-04-15T03:12:42;100125.41;;;8.72;59.47
78337;BME280;67610;51.588;7.002;2023-04-15T03:15:08;100122.09;;;8.70;58.94
78337;BME280;67610;51.588;7.002;2023-04-15T03:17:33;100124.72;;;8.70;58.94
78337;BME280;67610;51.588;7.002;2023-04-15T03:20:01;100126.84;;;8.67;59.38
78337;BME280;67610;51.588;7.002;2023-04-15T03:22:26;100127.31;;;8.62;59.66
78337;BME280;67610;51.588;7.002;2023-04-15T03:24:52;100127.88;;;8.56;59.45
78337;BME280;67610;51.588;7.002;2023-04-15T03:27:17;100128.22;;;8.53;59.69
78337;BME280;67610;51.588;7.002;2023-04-15T03:29:42;100130.13;;;8.51;59.80
78337;BME280;67610;51.588;7.002;2023-04-15T03:32:08;100130.28;;;8.50;59.84
78337;BME280;67610;51.588;7.002;2023-04-15T03:34:33;100134.69;;;8.49;59.89
78337;BME280;67610;51.588;7.002;2023-04-15T03:36:58;100135.69;;;8.48;60.15
78337;BME280;67610;51.588;7.002;2023-04-15T03:39:24;100134.03;;;8.47;60.38
78337;BME280;67610;51.588;7.002;2023-04-15T03:41:49;100144.13;;;8.42;59.75
78337;BME280;67610;51.588;7.002;2023-04-15T03:44:15;100147.75;;;8.41;60.32
78337;BME280;67610;51.588;7.002;2023-04-15T03:46:40;100146.69;;;8.34;61.01
78337;BME280;67610;51.588;7.002;2023-04-15T03:49:06;100152.91;;;8.33;61.99
78337;BME280;67610;51.588;7.002;2023-04-15T03:51:32;100155.13;;;8.28;60.96
78337;BME280;67610;51.588;7.002;2023-04-15T03:53:58;100156.38;;;8.24;61.20
78337;BME280;67610;51.588;7.002;2023-04-15T03:56:23;100149.31;;;8.34;61.84
78337;BME280;67610;51.588;7.002;2023-04-15T03:58:49;100151.56;;;8.29;62.54
78337;BME280;67610;51.588;7.002;2023-04-15T04:01:15;100158.75;;;8.27;62.31
78337;BME280;67610;51.588;7.002;2023-04-15T04:03:41;100154.06;;;8.21;62.04
78337;BME280;67610;51.588;7.002;2023-04-15T04:06:06;100161.50;;;8.25;62.58
78337;BME280;67610;51.588;7.002;2023-04-15T04:08:32;100154.59;;;8.24;62.40
78337;BME280;67610;51.588;7.002;2023-04-15T04:10:57;100165.06;;;8.24;62.47
78337;BME280;67610;51.588;7.002;2023-04-15T04:13:22;100158.03;;;8.25;62.17
78337;BME280;67610;51.588;7.002;2023-04-15T04:15:48;100157.91;;;8.26;61.88
78337;BME280;67610;51.588;7.002;2023-04-15T04:18:13;100158.88;;;8.25;62.59
78337;BME280;67610;51.588;7.002;2023-04-15T04:20:39;100165.22;;;8.23;62.28
78337;BME280;67610;51.588;7.002;2023-04-15T04:23:04;100168.97;;;8.20;62.16
78337;BME280;67610;51.588;7.002;2023-04-15T04:25:30;100164.56;;;8.21;62.04
78337;BME280;67610;51.588;7.002;2023-04-15T04:27:55;100172.81;;;8.16;62.41
78337;BME280;67610;51.588;7.002;2023-04-15T04:30:20;100166.41;;;8.11;62.25
78337;BME280;67610;51.588;7.002;2023-04-15T04:32:46;100165.41;;;8.12;63.15
78337;BME280;67610;51.588;7.002;2023-04-15T04:35:11;100177.16;;;8.08;62.75
78337;BME280;67610;51.588;7.002;2023-04-15T04:37:38;100166.84;;;8.06;62.62
78337;BME280;67610;51.588;7.002;2023-04-15T04:40:04;100177.03;;;8.09;62.35
78337;BME280;67610;51.588;7.002;2023-04-15T04:42:29;100179.94;;;8.06;62.66
78337;BME280;67610;51.588;7.002;2023-04-15T04:44:55;100181.72;;;8.06;63.09
78337;BME280;67610;51.588;7.002;2023-04-15T04:47:20;100178.44;;;8.04;62.80
78337;BME280;67610;51.588;7.002;2023-04-15T04:49:46;100188.91;;;8.04;62.98
78337;BME280;67610;51.588;7.002;2023-04-15T04:52:11;100186.56;;;8.01;63.74
78337;BME280;67610;51.588;7.002;2023-04-15T04:54:37;100181.25;;;7.93;64.46
78337;BME280;67610;51.588;7.002;2023-04-15T04:57:02;100194.63;;;7.90;64.13
78337;BME280;67610;51.588;7.002;2023-04-15T04:59:27;100199.97;;;7.98;64.01
78337;BME280;67610;51.588;7.002;2023-04-15T05:01:53;100206.44;;;7.94;65.00
78337;BME280;67610;51.588;7.002;2023-04-15T05:04:18;100204.81;;;7.93;64.82
78337;BME280;67610;51.588;7.002;2023-04-15T05:06:44;100199.97;;;7.98;64.78
78337;BME280;67610;51.588;7.002;2023-04-15T05:09:09;100204.78;;;8.02;64.83
78337;BME280;67610;51.588;7.002;2023-04-15T05:11:35;100210.28;;;7.99;64.75
78337;BME280;67610;51.588;7.002;2023-04-15T05:14:00;100215.38;;;8.01;65.43
78337;BME280;67610;51.588;7.002;2023-04-15T05:16:26;100215.38;;;8.01;64.91
78337;BME280;67610;51.588;7.002;2023-04-15T05:18:52;100215.94;;;8.04;65.48
78337;BME280;67610;51.588;7.002;2023-04-15T05:21:17;100215.78;;;8.06;65.38
78337;BME280;67610;51.588;7.002;2023-04-15T05:23:43;100225.53;;;8.13;64.70
78337;BME280;67610;51.588;7.002;2023-04-15T05:26:08;100227.72;;;8.18;65.32
78337;BME280;67610;51.588;7.002;2023-04-15T05:28:33;100227.72;;;8.18;65.50
78337;BME280;67610;51.588;7.002;2023-04-15T05:30:59;100228.00;;;8.15;65.01
78337;BME280;67610;51.588;7.002;2023-04-15T05:33:24;100222.84;;;8.23;64.91
78337;BME280;67610;51.588;7.002;2023-04-15T05:35:50;100235.81;;;8.24;64.44
78337;BME280;67610;51.588;7.002;2023-04-15T05:38:15;100236.50;;;8.26;65.02
78337;BME280;67610;51.588;7.002;2023-04-15T05:40:41;100240.63;;;8.29;65.24
78337;BME280;67610;51.588;7.002;2023-04-15T05:43:06;100230.53;;;8.34;64.64
78337;BME280;67610;51.588;7.002;2023-04-15T05:45:32;100236.69;;;8.42;64.40
78337;BME280;67610;51.588;7.002;2023-04-15T05:47:57;100242.31;;;8.48;63.83
78337;BME280;67610;51.588;7.002;2023-04-15T05:50:22;100250.19;;;8.48;64.45
78337;BME280;67610;51.588;7.002;2023-04-15T05:52:48;100251.41;;;8.53;64.62
78337;BME280;67610;51.588;7.002;2023-04-15T05:55:13;100257.53;;;8.62;64.15
78337;BME280;67610;51.588;7.002;2023-04-15T05:57:38;100261.22;;;8.69;64.17
78337;BME280;67610;51.588;7.002;2023-04-15T06:00:05;100255.53;;;8.73;64.07
78337;BME280;67610;51.588;7.002;2023-04-15T06:02:31;100261.28;;;8.77;64.20
78337;BME280;67610;51.588;7.002;2023-04-15T06:04:56;100265.50;;;8.87;63.79
78337;BME280;67610;51.588;7.002;2023-04-15T06:07:22;100268.63;;;8.91;64.40
78337;BME280;67610;51.588;7.002;2023-04-15T06:09:48;100260.84;;;8.99;63.57
78337;BME280;67610;51.588;7.002;2023-04-15T06:12:14;100269.31;;;9.10;63.56
78337;BME280;67610;51.588;7.002;2023-04-15T06:14:40;100277.56;;;9.16;63.51
78337;BME280;67610;51.588;7.002;2023-04-15T06:17:05;100272.75;;;9.29;63.11
78337;BME280;67610;51.588;7.002;2023-04-15T06:19:31;100276.91;;;9.39;62.71
78337;BME280;67610;51.588;7.002;2023-04-15T06:21:57;100281.78;;;9.52;62.55
78337;BME280;67610;51.588;7.002;2023-04-15T06:24:23;100286.03;;;9.53;62.41
78337;BME280;67610;51.588;7.002;2023-04-15T06:26:50;100292.66;;;9.57;62.55
78337;BME280;67610;51.588;7.002;2023-04-15T06:29:15;100289.31;;;9.72;62.00
78337;BME280;67610;51.588;7.002;2023-04-15T06:31:40;100295.13;;;9.84;61.84
78337;BME280;67610;51.588;7.002;2023-04-15T06:34:06;100300.09;;;9.95;61.45
78337;BME280;67610;51.588;7.002;2023-04-15T06:36:31;100299.09;;;10.14;60.91
78337;BME280;67610;51.588;7.002;2023-04-15T06:38:57;100298.97;;;10.23;60.46
78337;BME280;67610;51.588;7.002;2023-04-15T06:41:22;100307.91;;;10.38;59.97
78337;BME280;67610;51.588;7.002;2023-04-15T06:43:48;100309.63;;;10.56;59.88
78337;BME280;67610;51.588;7.002;2023-04-15T06:46:13;100320.03;;;10.73;58.94
78337;BME280;67610;51.588;7.002;2023-04-15T06:48:38;100316.28;;;10.84;58.66
78337;BME280;67610;51.588;7.002;2023-04-15T06:51:04;100318.44;;;10.96;58.69
78337;BME280;67610;51.588;7.002;2023-04-15T06:53:29;100322.25;;;11.10;57.72
78337;BME280;67610;51.588;7.002;2023-04-15T06:55:55;100323.41;;;11.15;57.89
78337;BME280;67610;51.588;7.002;2023-04-15T06:58:21;100324.41;;;11.14;57.68
78337;BME280;67610;51.588;7.002;2023-04-15T07:00:46;100324.75;;;11.28;57.56
78337;BME280;67610;51.588;7.002;2023-04-15T07:03:12;100321.78;;;11.39;56.93
78337;BME280;67610;51.588;7.002;2023-04-15T07:05:38;100321.63;;;11.48;56.66
78337;BME280;67610;51.588;7.002;2023-04-15T07:08:04;100326.22;;;11.54;56.52
78337;BME280;67610;51.588;7.002;2023-04-15T07:10:29;100321.94;;;11.61;56.44
78337;BME280;67610;51.588;7.002;2023-04-15T07:12:55;100333.34;;;11.70;55.83
78337;BME280;67610;51.588;7.002;2023-04-15T07:15:21;100331.50;;;11.70;55.81
78337;BME280;67610;51.588;7.002;2023-04-15T07:17:47;100324.91;;;11.82;55.56
78337;BME280;67610;51.588;7.002;2023-04-15T07:20:13;100333.00;;;11.81;55.04
78337;BME280;67610;51.588;7.002;2023-04-15T07:22:38;100337.09;;;12.00;55.27
78337;BME280;67610;51.588;7.002;2023-04-15T07:25:04;100338.84;;;12.15;54.93
78337;BME280;67610;51.588;7.002;2023-04-15T07:27:30;100344.22;;;12.38;54.68
78337;BME280;67610;51.588;7.002;2023-04-15T07:29:56;100344.81;;;12.56;53.89
78337;BME280;67610;51.588;7.002;2023-04-15T07:32:22;100338.47;;;12.73;53.80
78337;BME280;67610;51.588;7.002;2023-04-15T07:34:47;100343.69;;;12.81;53.48
78337;BME280;67610;51.588;7.002;2023-04-15T07:37:13;100352.66;;;13.03;53.08
78337;BME280;67610;51.588;7.002;2023-04-15T07:39:39;100346.66;;;13.17;52.84
78337;BME280;67610;51.588;7.002;2023-04-15T07:42:04;100347.09;;;13.28;52.25
78337;BME280;67610;51.588;7.002;2023-04-15T07:44:30;100352.59;;;13.42;52.12
78337;BME280;67610;51.588;7.002;2023-04-15T07:46:55;100349.91;;;13.50;51.59
78337;BME280;67610;51.588;7.002;2023-04-15T07:49:21;100359.06;;;13.62;51.68
78337;BME280;67610;51.588;7.002;2023-04-15T07:51:47;100360.25;;;13.74;51.65
78337;BME280;67610;51.588;7.002;2023-04-15T07:54:13;100359.84;;;13.62;50.24
78337;BME280;67610;51.588;7.002;2023-04-15T07:56:41;100363.97;;;13.65;48.84
78337;BME280;67610;51.588;7.002;2023-04-15T07:59:07;100359.81;;;13.48;49.53
78337;BME280;67610;51.588;7.002;2023-04-15T08:01:34;100353.59;;;13.63;49.81
78337;BME280;67610;51.588;7.002;2023-04-15T08:03:59;100359.72;;;13.78;49.66
78337;BME280;67610;51.588;7.002;2023-04-15T08:06:25;100359.16;;;14.06;49.96
78337;BME280;67610;51.588;7.002;2023-04-15T08:08:51;100362.38;;;14.30;49.21
78337;BME280;67610;51.588;7.002;2023-04-15T08:11:18;100367.69;;;14.45;48.77
78337;BME280;67610;51.588;7.002;2023-04-15T08:13:43;100373.78;;;14.60;48.88
78337;BME280;67610;51.588;7.002;2023-04-15T08:16:23;100370.84;;;14.69;48.21
78337;BME280;67610;51.588;7.002;2023-04-15T08:18:50;100373.41;;;14.78;47.89
78337;BME280;67610;51.588;7.002;2023-04-15T08:21:17;100373.03;;;14.81;47.48
78337;BME280;67610;51.588;7.002;2023-04-15T08:23:44;100376.69;;;14.80;46.79
78337;BME280;67610;51.588;7.002;2023-04-15T08:26:10;100380.34;;;14.79;46.29
78337;BME280;67610;51.588;7.002;2023-04-15T08:28:38;100377.06;;;14.77;45.85
78337;BME280;67610;51.588;7.002;2023-04-15T08:31:03;100384.63;;;14.80;46.18
78337;BME280;67610;51.588;7.002;2023-04-15T08:33:29;100380.25;;;14.72;45.57
78337;BME280;67610;51.588;7.002;2023-04-15T08:35:54;100385.84;;;14.62;46.23
78337;BME280;67610;51.588;7.002;2023-04-15T08:38:20;100387.66;;;14.62;46.45
78337;BME280;67610;51.588;7.002;2023-04-15T08:40:47;100384.66;;;14.65;46.59
78337;BME280;67610;51.588;7.002;2023-04-15T08:43:20;100385.63;;;14.79;46.29
78337;BME280;67610;51.588;7.002;2023-04-15T08:45:46;100387.25;;;14.94;46.54
78337;BME280;67610;51.588;7.002;2023-04-15T08:48:14;100393.56;;;15.29;46.28
78337;BME280;67610;51.588;7.002;2023-04-15T08:50:44;100382.75;;;15.66;45.82
78337;BME280;67610;51.588;7.002;2023-04-15T08:53:10;100384.75;;;15.85;45.34
78337;BME280;67610;51.588;7.002;2023-04-15T08:55:41;100393.50;;;16.07;44.70
78337;BME280;67610;51.588;7.002;2023-04-15T08:58:08;100395.50;;;16.05;44.60
78337;BME280;67610;51.588;7.002;2023-04-15T09:00:35;100397.16;;;16.06;44.38
78337;BME280;67610;51.588;7.002;2023-04-15T09:03:01;100405.34;;;15.83;43.56
78337;BME280;67610;51.588;7.002;2023-04-15T09:05:26;100404.78;;;15.67;44.16
78337;BME280;67610;51.588;7.002;2023-04-15T09:07:52;100414.69;;;15.58;44.74
78337;BME280;67610;51.588;7.002;2023-04-15T09:10:17;100414.69;;;15.58;45.22
78337;BME280;67610;51.588;7.002;2023-04-15T09:12:42;100414.38;;;15.47;44.58
78337;BME280;67610;51.588;7.002;2023-04-15T09:15:10;100423.03;;;15.40;45.39
78337;BME280;67610;51.588;7.002;2023-04-15T09:17:42;100415.97;;;15.62;45.32
78337;BME280;67610;51.588;7.002;2023-04-15T09:20:09;100426.38;;;15.85;44.83
78337;BME280;67610;51.588;7.002;2023-04-15T09:22:37;100425.53;;;15.84;44.94
78337;BME280;67610;51.588;7.002;2023-04-15T09:25:03;100433.69;;;15.83;45.14
78337;BME280;67610;51.588;7.002;2023-04-15T09:27:28;100438.81;;;15.63;44.98
78337;BME280;67610;51.588;7.002;2023-04-15T09:29:54;100441.47;;;15.63;45.03
78337;BME280;67610;51.588;7.002;2023-04-15T09:32:20;100451.63;;;15.60;44.85
78337;BME280;67610;51.588;7.002;2023-04-15T09:34:47;100446.63;;;15.50;44.91
78337;BME280;67610;51.588;7.002;2023-04-15T09:37:13;100453.03;;;15.26;45.17
78337;BME280;67610;51.588;7.002;2023-04-15T09:39:49;100452.34;;;15.03;45.82
78337;BME280;67610;51.588;7.002;2023-04-15T09:42:16;100449.72;;;14.89;46.29
78337;BME280;67610;51.588;7.002;2023-04-15T09:44:49;100455.94;;;14.81;46.71
78337;BME280;67610;51.588;7.002;2023-04-15T09:47:31;100456.56;;;14.83;47.38
78337;BME280;67610;51.588;7.002;2023-04-15T09:49:58;100454.84;;;14.76;47.43
78337;BME280;67610;51.588;7.002;2023-04-15T09:52:23;100456.22;;;14.72;47.62
78337;BME280;67610;51.588;7.002;2023-04-15T09:54:52;100462.13;;;14.74;47.55
78337;BME280;67610;51.588;7.002;2023-04-15T09:57:19;100462.88;;;14.67;47.57
78337;BME280;67610;51.588;7.002;2023-04-15T09:59:46;100458.78;;;14.65;47.80
78337;BME280;67610;51.588;7.002;2023-04-15T10:02:12;100472.63;;;14.52;47.83
78337;BME280;67610;51.588;7.002;2023-04-15T10:04:39;100473.53;;;14.45;48.09
78337;BME280;67610;51.588;7.002;2023-04-15T10:07:07;100475.47;;;14.28;48.50
78337;BME280;67610;51.588;7.002;2023-04-15T10:09:35;100481.66;;;14.21;48.73
78337;BME280;67610;51.588;7.002;2023-04-15T10:12:02;100472.63;;;14.15;49.07
78337;BME280;67610;51.588;7.002;2023-04-15T10:14:32;100484.50;;;14.19;49.14
78337;BME280;67610;51.588;7.002;2023-04-15T10:17:00;100479.72;;;14.37;48.83
78337;BME280;67610;51.588;7.002;2023-04-15T10:19:30;100488.94;;;14.41;48.57
78337;BME280;67610;51.588;7.002;2023-04-15T10:21:57;100485.47;;;14.41;48.87
78337;BME280;67610;51.588;7.002;2023-04-15T10:24:23;100488.09;;;14.41;49.02
78337;BME280;67610;51.588;7.002;2023-04-15T10:26:50;100493.88;;;14.44;48.79
78337;BME280;67610;51.588;7.002;2023-04-15T10:29:17;100494.63;;;14.38;48.85
78337;BME280;67610;51.588;7.002;2023-04-15T10:31:42;100492.94;;;14.37;48.72
78337;BME280;67610;51.588;7.002;2023-04-15T10:34:09;100501.19;;;14.42;48.60
78337;BME280;67610;51.588;7.002;2023-04-15T10:36:35;100493.94;;;14.36;48.74
78337;BME280;67610;51.588;7.002;2023-04-15T10:39:00;100499.53;;;14.41;48.80
78337;BME280;67610;51.588;7.002;2023-04-15T10:41:27;100505.44;;;14.43;48.90
78337;BME280;67610;51.588;7.002;2023-04-15T10:43:55;100502.38;;;14.40;48.91
78337;BME280;67610;51.588;7.002;2023-04-15T10:46:43;100511.13;;;14.40;48.60
78337;BME280;67610;51.588;7.002;2023-04-15T10:49:09;100510.66;;;14.37;48.93
78337;BME280;67610;51.588;7.002;2023-04-15T10:51:39;100510.50;;;14.38;48.79
78337;BME280;67610;51.588;7.002;2023-04-15T10:54:16;100507.16;;;14.36;48.94
78337;BME280;67610;51.588;7.002;2023-04-15T10:59:30;100519.72;;;14.42;49.01
78337;BME280;67610;51.588;7.002;2023-04-15T11:01:59;100513.00;;;14.32;49.48
78337;BME280;67610;51.588;7.002;2023-04-15T11:04:57;100516.97;;;14.28;49.42
78337;BME280;67610;51.588;7.002;2023-04-15T11:07:36;100513.25;;;14.22;49.65
78337;BME280;67610;51.588;7.002;2023-04-15T11:10:03;100516.56;;;14.16;49.66
78337;BME280;67610;51.588;7.002;2023-04-15T11:12:35;100523.28;;;14.04;49.42
78337;BME280;67610;51.588;7.002;2023-04-15T11:15:39;100522.88;;;13.92;50.21
78337;BME280;67610;51.588;7.002;2023-04-15T11:20:38;100520.41;;;13.91;50.29
78337;BME280;67610;51.588;7.002;2023-04-15T11:23:04;100526.22;;;13.86;50.20
78337;BME280;67610;51.588;7.002;2023-04-15T11:25:34;100531.97;;;13.90;51.14
78337;BME280;67610;51.588;7.002;2023-04-15T11:28:02;100538.56;;;13.94;50.68
78337;BME280;67610;51.588;7.002;2023-04-15T11:30:30;100533.75;;;13.97;50.84
78337;BME280;67610;51.588;7.002;2023-04-15T11:33:01;100542.50;;;13.98;50.49
78337;BME280;67610;51.588;7.002;2023-04-15T11:35:27;100549.44;;;13.99;50.54
78337;BME280;67610;51.588;7.002;2023-04-15T11:37:53;100544.81;;;14.01;50.13
78337;BME280;67610;51.588;7.002;2023-04-15T11:40:27;100551.78;;;13.94;50.29
78337;BME280;67610;51.588;7.002;2023-04-15T11:43:09;100552.44;;;13.96;50.29
78337;BME280;67610;51.588;7.002;2023-04-15T11:45:36;100561.31;;;13.80;50.45
78337;BME280;67610;51.588;7.002;2023-04-15T11:48:07;100558.03;;;13.70;50.58
78337;BME280;67610;51.588;7.002;2023-04-15T11:50:34;100554.41;;;13.71;50.73
78337;BME280;67610;51.588;7.002;2023-04-15T11:53:04;100562.84;;;13.67;50.62
78337;BME280;67610;51.588;7.002;2023-04-15T11:55:40;100566.00;;;13.62;50.59
78337;BME280;67610;51.588;7.002;2023-04-15T11:58:15;100568.69;;;13.54;50.87
78337;BME280;67610;51.588;7.002;2023-04-15T12:00:49;100573.78;;;13.56;50.76
78337;BME280;67610;51.588;7.002;2023-04-15T12:06:19;100574.88;;;13.39;51.24
78337;BME280;67610;51.588;7.002;2023-04-15T12:11:17;100580.81;;;13.41;51.42
78337;BME280;67610;51.588;7.002;2023-04-15T12:13:43;100587.06;;;13.40;51.23
78337;BME280;67610;51.588;7.002;2023-04-15T12:16:10;100585.28;;;13.32;51.26
78337;BME280;67610;51.588;7.002;2023-04-15T12:18:38;100589.44;;;13.26;51.50
78337;BME280;67610;51.588;7.002;2023-04-15T12:21:10;100587.44;;;13.28;51.76
78337;BME280;67610;51.588;7.002;2023-04-15T12:23:53;100589.09;;;13.29;51.86
78337;BME280;67610;51.588;7.002;2023-04-15T12:26:37;100599.50;;;13.23;51.91
78337;BME280;67610;51.588;7.002;2023-04-15T12:29:07;100604.31;;;13.19;51.99
78337;BME280;67610;51.588;7.002;2023-04-15T12:31:36;100607.44;;;13.23;52.32
78337;BME280;67610;51.588;7.002;2023-04-15T12:34:03;100607.09;;;13.26;52.04
78337;BME280;67610;51.588;7.002;2023-04-15T12:36:31;100603.47;;;13.27;51.86
78337;BME280;67610;51.588;7.002;2023-04-15T12:39:01;100605.25;;;13.35;51.89
78337;BME280;67610;51.588;7.002;2023-04-15T12:41:29;100605.56;;;13.40;52.04
78337;BME280;67610;51.588;7.002;2023-04-15T12:43:54;100617.75;;;13.49;51.66
78337;BME280;67610;51.588;7.002;2023-04-15T12:46:20;100620.91;;;13.44;51.78
78337;BME280;67610;51.588;7.002;2023-04-15T12:48:46;100618.41;;;13.51;52.13
78337;BME280;67610;51.588;7.002;2023-04-15T12:51:12;100614.75;;;13.60;51.72
78337;BME280;67610;51.588;7.002;2023-04-15T12:53:38;100622.00;;;13.58;51.64
78337;BME280;67610;51.588;7.002;2023-04-15T12:56:03;100635.22;;;13.66;51.74
78337;BME280;67610;51.588;7.002;2023-04-15T12:58:29;100627.53;;;13.79;51.38
78337;BME280;67610;51.588;7.002;2023-04-15T13:00:54;100633.31;;;13.82;51.30
78337;BME280;67610;51.588;7.002;2023-04-15T13:03:20;100633.13;;;13.84;51.09